EIKY/KIR METAR and TAF weather

Enter ICAO airport designator
Station Type Date Time Source
EIKY METAR 2019/08/21 19:30 UTC NOAA

EIKY 211930Z 26008KT 9999 -RA FEW004 BKN009 OVC024 15/14 Q1019


Station Type Date Time Source
EIKY Decoded METAR 2019/08/21 19:30 UTC NOAA

Station name not available
Aug 21, 2019 - 03:30 PM EDT / 2019.08.21 1930 UTC
Wind: from the W (260 degrees) at 9 MPH (8 KT):0
Visibility: greater than 7 mile(s):0
Sky conditions: overcast
Weather: light rain
Temperature: 59 F (15 C)
Dew Point: 57 F (14 C)
Relative Humidity: 93%
Pressure (altimeter): 30.09 in. Hg (1019 hPa)
ob: EIKY 211930Z 26008KT 9999 -RA FEW004 BKN009 OVC024 15/14 Q1019
cycle: 19

Station Type Date Time Source
EIKY TAF UTC NOAA

Error!

Example: see airport list